Flight Track Log - Related Links

Times and Time Zones

All times are in EDT time to prevent confusion due to time zone crossing. See the UAL4583 flight status page for this flight to view local times or setup timezone preferences in your user account.

Time Position Orientation Groundspeed Altitude Reporting Facility
EDT Latitude Longitude Course Direction KTS MPH feet Rate Location/Type
Sun 04:54:04 PM 39.0500 -84.6833 303° West 158 182 1,400  Level Cincinnati TRACON
Sun 04:54:41 PM 39.0667 -84.7167 303° West 174 200 2,600 1,978 Climbing Cincinnati TRACON
Sun 04:55:35 PM 39.1167 -84.6833 27° Northeast 207 238 4,400 1,842 Climbing Cincinnati TRACON
Sun 04:56:35 PM 39.1667 -84.6500 27° Northeast 252 290 6,100 2,000 Climbing Cincinnati TRACON
Sun 04:58:05 PM 39.2656 -84.5869 26° Northeast 266 306 9,400 1,776 Climbing Indianapolis Center
Sun 04:59:07 PM 39.3389 -84.5403 26° Northeast 283 326 10,600 1,016 Climbing Indianapolis Center
Sun 05:00:09 PM 39.4264 -84.4875 25° Northeast 332 382 11,500 1,210 Climbing Indianapolis Center
Sun 05:01:11 PM 39.5125 -84.4194 31° Northeast 365 420 13,100 1,694 Climbing Indianapolis Center
Sun 05:02:13 PM 39.5886 -84.2964 51° Northeast 365 420 15,000 1,645 Climbing Indianapolis Center
Sun 05:03:15 PM 39.6531 -84.1953 50° Northeast 364 419 16,500 1,403 Climbing Indianapolis Center
Sun 05:04:17 PM 39.7186 -84.0911 51° Northeast 372 428 17,900 1,104 Climbing Indianapolis Center
Sun 05:05:20 PM 39.7842 -83.9861 51° Northeast 374 430 18,800 1,008 Climbing Indianapolis Center
Sun 05:06:22 PM 39.8517 -83.8778 51° Northeast 381 438 20,000 1,113 Climbing Indianapolis Center
Sun 05:07:24 PM 39.9214 -83.7664 51° Northeast 391 450 21,100 1,065 Climbing Indianapolis Center
Sun 05:08:26 PM 39.9989 -83.6611 46° Northeast 401 461 22,200 1,113 Climbing Indianapolis Center
Sun 05:09:28 PM 40.0850 -83.5658 40° Northeast 400 460 23,400 1,306 Climbing Indianapolis Center
Sun 05:10:30 PM 40.1817 -83.4419 44° Northeast 404 465 24,900 1,355 Climbing Indianapolis Center
Sun 05:11:32 PM 40.2489 -83.3258 53° Northeast 400 460 26,200 1,306 Climbing Indianapolis Center
Sun 05:12:34 PM 40.3158 -83.2111 53° Northeast 397 457 27,600 1,306 Climbing Indianapolis Center
Sun 05:13:36 PM 40.3817 -83.0986 52° Northeast 392 451 28,900 1,258 Climbing Indianapolis Center
Sun 05:14:38 PM 40.4478 -82.9872 52° Northeast 388 447 30,200 1,306 Climbing Indianapolis Center
Sun 05:15:40 PM 40.5192 -82.8631 53° Northeast 385 443 31,600 1,210 Climbing Indianapolis Center
Sun 05:16:42 PM 40.5853 -82.7497 52° Northeast 386 444 32,700 919 Climbing Indianapolis Center
Sun 05:17:44 PM 40.6531 -82.6336 52° Northeast 394 453 33,500 871 Climbing Indianapolis Center
Sun 05:18:46 PM 40.7206 -82.5161 53° Northeast 399 459 34,500 726 Climbing Indianapolis Center
Sun 05:19:48 PM 40.7897 -82.3964 53° Northeast 405 466 35,000 242 Climbing Indianapolis Center
Sun 05:20:50 PM 40.8736 -82.2494 53° Northeast 426 490 35,000  Level Indianapolis Center
Sun 05:21:52 PM 40.9494 -82.1172 53° Northeast 444 511 35,000  Level Indianapolis Center
Sun 05:22:51 PM 41.0272 -81.9794 53° Northeast 459 528 35,000  Level Cleveland Center
Sun 05:23:53 PM 41.1039 -81.8436 53° Northeast 458 527 35,000  Level Cleveland Center
Sun 05:24:55 PM 41.1794 -81.7092 53° Northeast 458 527 35,000  Level Cleveland Center
Sun 05:25:57 PM 41.2217 -81.5478 71° East 460 529 35,000  Level Cleveland Center
Sun 05:26:59 PM 41.2536 -81.3908 75° East 454 522 35,000  Level Cleveland Center
Sun 05:28:01 PM 41.2897 -81.2011 76° East 451 519 35,000  Level Cleveland Center
Sun 05:29:03 PM 41.3208 -81.0383 76° East 451 519 35,000  Level Cleveland Center
Sun 05:30:05 PM 41.3519 -80.8775 76° East 448 516 35,000  Level Cleveland Center
Sun 05:32:10 PM 41.4139 -80.5531 76° East 448 516 35,000  Level Cleveland Center
Sun 05:33:12 PM 41.4447 -80.3894 76° East 451 519 35,000  Level Cleveland Center
Sun 05:34:14 PM 41.4742 -80.2231 77° East 452 520 35,000  Level Cleveland Center
Sun 05:35:16 PM 41.5044 -80.0600 76° East 454 522 35,000  Level Cleveland Center
Sun 05:36:18 PM 41.5389 -79.8783 76° East 456 525 35,000  Level Cleveland Center
Sun 05:37:20 PM 41.5683 -79.7158 76° East 454 522 35,000  Level Cleveland Center
Sun 05:38:22 PM 41.5969 -79.5500 77° East 457 526 35,000  Level Cleveland Center
Sun 05:39:24 PM 41.6333 -79.3522 76° East 460 529 35,000  Level Cleveland Center
Sun 05:40:26 PM 41.6525 -79.1844 81° East 459 528 35,000  Level Cleveland Center
Sun 05:41:28 PM 41.6361 -79.0181 97° East 454 522 35,000  Level Cleveland Center
Sun 05:42:30 PM 41.6169 -78.8511 99° East 453 521 35,000  Level Cleveland Center
Sun 05:43:32 PM 41.5978 -78.6842 99° East 455 524 35,000  Level Cleveland Center
Sun 05:44:35 PM 41.5789 -78.5169 99° East 454 522 35,000 -480 Level Cleveland Center
Sun 05:45:37 PM 41.5550 -78.3156 99° East 457 526 34,000 -1,452 Descending Cleveland Center
Sun 05:46:39 PM 41.5350 -78.1533 99° East 449 517 32,000 -1,452 Descending Cleveland Center
Sun 05:47:41 PM 41.5161 -77.9947 99° East 438 504 31,000 -484 Descending Cleveland Center
Sun 05:48:43 PM 41.4944 -77.8344 100° East 439 505 31,000  Level Cleveland Center
Sun 05:49:39 PM 41.4711 -77.6653 100° East 447 514 31,000  Level New York Center
Sun 05:50:39 PM 41.4453 -77.4992 102° East 442 509 31,000  Level New York Center
Sun 05:51:39 PM 41.4192 -77.3361 102° East 442 509 31,000  Level New York Center
Sun 05:52:39 PM 41.3969 -77.1708 100° East 447 514 31,000  Level New York Center
Sun 05:53:39 PM 41.3722 -77.0053 101° East 452 520 31,000 -600 Level New York Center
Sun 05:54:39 PM 41.3475 -76.8397 101° East 452 520 29,800 -1,750 Descending New York Center
Sun 05:55:39 PM 41.3136 -76.6850 106° East 452 520 27,500 -2,300 Descending New York Center
Sun 05:56:39 PM 41.2692 -76.5292 111° Southeast 452 520 25,200 -2,350 Descending New York Center
Sun 05:57:39 PM 41.2267 -76.3739 110° East 452 520 22,800 -2,300 Descending New York Center
Sun 05:58:39 PM 41.1881 -76.2217 109° East 441 507 20,600 -2,150 Descending New York Center
Sun 05:59:39 PM 41.1528 -76.0783 108° East 426 490 18,500 -1,900 Descending New York Center
Sun 06:00:39 PM 41.1167 -75.9542 111° Southeast 409 471 16,800 -1,850 Descending New York Center
Sun 06:01:39 PM 41.0753 -75.8025 110° East 397 457 14,800 -1,700 Descending New York Center
Sun 06:02:39 PM 41.0372 -75.6675 110° East 392 451 13,400 -900 Descending New York Center
Sun 06:03:39 PM 41.0044 -75.5497 110° East 392 451 13,000 -200 Descending New York Center
Sun 06:04:39 PM 40.9625 -75.4011 110° East 392 451 13,000 -850 Level New York Center
Sun 06:05:39 PM 40.9314 -75.2892 110° East 376 433 11,300 -1,400 Descending New York Center
Sun 06:06:39 PM 40.9003 -75.1744 110° East 343 395 10,200 -1,500 Descending New York Center
Sun 06:07:39 PM 40.8686 -75.0708 112° Southeast 292 336 8,300 -1,600 Descending New York Center
Sun 06:08:39 PM 40.8431 -74.9761 110° East 278 320 7,000 -1,050 Descending New York Center
Sun 06:09:39 PM 40.8192 -74.8869 109° East 267 307 6,200 -500 Descending New York Center
Sun 06:10:39 PM 40.7950 -74.7950 109° East 257 296 6,000 -100 Descending New York Center
Sun 06:11:39 PM 40.7733 -74.7033 107° East 257 296 6,000  Level New York Center
Sun 06:12:49 PM 40.7333 -74.6000 117° Southeast 259 298 6,000  Level New York TRACON
Sun 06:13:49 PM 40.6667 -74.6000 180° South 260 299 6,000 -200 Level New York TRACON
Sun 06:14:49 PM 40.6000 -74.5667 159° South 260 299 5,600 -900 Descending New York TRACON
Sun 06:15:49 PM 40.5333 -74.5333 159° South 258 297 4,200 -800 Descending New York TRACON
Sun 06:16:49 PM 40.4833 -74.4833 143° Southeast 224 258 4,000 -450 Descending New York TRACON
Sun 06:17:49 PM 40.4333 -74.4500 153° Southeast 210 242 3,300 -500 Descending New York TRACON
Sun 06:18:49 PM 40.4500 -74.3833 72° East 201 231 3,000 -143 Descending New York TRACON
Sun 06:19:55 PM 40.4833 -74.3167 57° Northeast 201 231 3,000  Level New York TRACON
Sun 06:20:49 PM 40.5167 -74.2833 37° Northeast 207 238 3,000 -158 Level New York TRACON
Sun 06:21:49 PM 40.5667 -74.2500 27° Northeast 177 204 2,700 -667 Descending New York TRACON
Sun 06:22:55 PM 40.6167 -74.2167 27° Northeast 170 196 1,600 -857 Descending New York TRACON
Sun 06:23:55 PM 40.6500 -74.2000 21° North 133 153 900 -700 Descending New York TRACON

Login

Don't have an account? Register now (free) for customized features, flight alerts, and more!